sensor_id;sensor_type;location;lat;lon;timestamp;pressure;altitude;pressure_sealevel;temperature;humidity
26978;BME280;56314;48.088;11.642;2022-08-21T00:02:18;95540.81;;;15.99;100.00
26978;BME280;56314;48.088;11.642;2022-08-21T00:04:45;95533.53;;;16.02;100.00
26978;BME280;56314;48.088;11.642;2022-08-21T00:07:12;95537.34;;;15.99;100.00
26978;BME280;56314;48.088;11.642;2022-08-21T00:09:38;95534.28;;;15.94;100.00
26978;BME280;56314;48.088;11.642;2022-08-21T00:12:04;95535.72;;;15.88;100.00
26978;BME280;56314;48.088;11.642;2022-08-21T00:14:31;95530.84;;;15.83;100.00
26978;BME280;56314;48.088;11.642;2022-08-21T00:16:56;95525.81;;;15.80;100.00
26978;BME280;56314;48.088;11.642;2022-08-21T00:19:22;95525.13;;;15.78;100.00
26978;BME280;56314;48.088;11.642;2022-08-21T00:21:53;95526.97;;;15.78;100.00
26978;BME280;56314;48.088;11.642;2022-08-21T00:24:21;95524.75;;;15.73;100.00
26978;BME280;56314;48.088;11.642;2022-08-21T00:26:46;95528.13;;;15.65;100.00
26978;BME280;56314;48.088;11.642;2022-08-21T00:29:12;95522.97;;;15.64;100.00
26978;BME280;56314;48.088;11.642;2022-08-21T00:31:39;95530.38;;;15.60;100.00
26978;BME280;56314;48.088;11.642;2022-08-21T00:34:04;95531.78;;;15.54;100.00
26978;BME280;56314;48.088;11.642;2022-08-21T00:36:30;95529.06;;;15.46;100.00
26978;BME280;56314;48.088;11.642;2022-08-21T00:38:56;95533.66;;;15.44;100.00
26978;BME280;56314;48.088;11.642;2022-08-21T00:41:22;95531.72;;;15.36;100.00
26978;BME280;56314;48.088;11.642;2022-08-21T00:43:49;95524.91;;;15.34;100.00
26978;BME280;56314;48.088;11.642;2022-08-21T00:46:15;95534.00;;;15.31;100.00
26978;BME280;56314;48.088;11.642;2022-08-21T00:48:40;95532.31;;;15.30;100.00
26978;BME280;56314;48.088;11.642;2022-08-21T00:51:28;95529.13;;;15.27;100.00
26978;BME280;56314;48.088;11.642;2022-08-21T00:54:00;95538.88;;;15.26;100.00
26978;BME280;56314;48.088;11.642;2022-08-21T00:56:27;95532.88;;;15.24;100.00
26978;BME280;56314;48.088;11.642;2022-08-21T00:58:55;95522.19;;;15.26;100.00
26978;BME280;56314;48.088;11.642;2022-08-21T01:01:21;95523.88;;;15.17;100.00
26978;BME280;56314;48.088;11.642;2022-08-21T01:03:47;95531.66;;;15.18;100.00
26978;BME280;56314;48.088;11.642;2022-08-21T01:06:13;95523.31;;;15.13;100.00
26978;BME280;56314;48.088;11.642;2022-08-21T01:08:38;95519.97;;;15.11;100.00
26978;BME280;56314;48.088;11.642;2022-08-21T01:11:04;95514.69;;;15.11;100.00
26978;BME280;56314;48.088;11.642;2022-08-21T01:13:32;95522.09;;;15.07;100.00
26978;BME280;56314;48.088;11.642;2022-08-21T01:16:00;95515.94;;;15.07;100.00
26978;BME280;56314;48.088;11.642;2022-08-21T01:18:28;95510.13;;;15.03;100.00
26978;BME280;56314;48.088;11.642;2022-08-21T01:21:13;95518.22;;;15.02;100.00
26978;BME280;56314;48.088;11.642;2022-08-21T01:23:42;95512.22;;;15.00;100.00
26978;BME280;56314;48.088;11.642;2022-08-21T01:26:08;95509.16;;;14.95;100.00
26978;BME280;56314;48.088;11.642;2022-08-21T01:28:38;95512.22;;;14.90;100.00
26978;BME280;56314;48.088;11.642;2022-08-21T01:31:07;95505.28;;;14.89;100.00
26978;BME280;56314;48.088;11.642;2022-08-21T01:33:33;95509.31;;;14.83;100.00
26978;BME280;56314;48.088;11.642;2022-08-21T01:35:59;95512.94;;;14.82;100.00
26978;BME280;56314;48.088;11.642;2022-08-21T01:38:24;95508.09;;;14.77;100.00
26978;BME280;56314;48.088;11.642;2022-08-21T01:40:50;95515.75;;;14.71;100.00
26978;BME280;56314;48.088;11.642;2022-08-21T01:43:15;95516.41;;;14.63;100.00
26978;BME280;56314;48.088;11.642;2022-08-21T01:45:41;95518.78;;;14.66;100.00
26978;BME280;56314;48.088;11.642;2022-08-21T01:48:06;95518.94;;;14.65;100.00
26978;BME280;56314;48.088;11.642;2022-08-21T01:50:32;95524.06;;;14.66;100.00
26978;BME280;56314;48.088;11.642;2022-08-21T01:52:57;95512.25;;;14.60;100.00
26978;BME280;56314;48.088;11.642;2022-08-21T01:55:23;95510.31;;;14.62;100.00
26978;BME280;56314;48.088;11.642;2022-08-21T01:57:49;95514.06;;;14.60;100.00
26978;BME280;56314;48.088;11.642;2022-08-21T02:00:18;95504.31;;;14.60;100.00
26978;BME280;56314;48.088;11.642;2022-08-21T02:02:44;95499.03;;;14.60;100.00
26978;BME280;56314;48.088;11.642;2022-08-21T02:05:11;95503.91;;;14.55;100.00
26978;BME280;56314;48.088;11.642;2022-08-21T02:07:43;95498.38;;;14.49;100.00
26978;BME280;56314;48.088;11.642;2022-08-21T02:10:10;95501.97;;;14.47;100.00
26978;BME280;56314;48.088;11.642;2022-08-21T02:12:36;95489.03;;;14.44;100.00
26978;BME280;56314;48.088;11.642;2022-08-21T02:15:03;95493.47;;;14.44;100.00
26978;BME280;56314;48.088;11.642;2022-08-21T02:17:38;95488.19;;;14.44;100.00
26978;BME280;56314;48.088;11.642;2022-08-21T02:20:03;95490.16;;;14.42;100.00
26978;BME280;56314;48.088;11.642;2022-08-21T02:22:29;95490.00;;;14.43;100.00
26978;BME280;56314;48.088;11.642;2022-08-21T02:24:55;95487.94;;;14.37;100.00
26978;BME280;56314;48.088;11.642;2022-08-21T02:27:24;95486.53;;;14.33;100.00
26978;BME280;56314;48.088;11.642;2022-08-21T02:29:50;95491.13;;;14.31;100.00
26978;BME280;56314;48.088;11.642;2022-08-21T02:32:15;95495.44;;;14.32;100.00
26978;BME280;56314;48.088;11.642;2022-08-21T02:34:40;95495.72;;;14.29;100.00
26978;BME280;56314;48.088;11.642;2022-08-21T02:37:06;95491.28;;;14.29;100.00
26978;BME280;56314;48.088;11.642;2022-08-21T02:39:31;95487.66;;;14.30;100.00
26978;BME280;56314;48.088;11.642;2022-08-21T02:41:57;95492.53;;;14.25;100.00
26978;BME280;56314;48.088;11.642;2022-08-21T02:44:22;95485.72;;;14.23;100.00
26978;BME280;56314;48.088;11.642;2022-08-21T02:46:47;95485.72;;;14.23;100.00
26978;BME280;56314;48.088;11.642;2022-08-21T02:49:13;95490.44;;;14.19;100.00
26978;BME280;56314;48.088;11.642;2022-08-21T02:51:38;95481.94;;;14.15;100.00
26978;BME280;56314;48.088;11.642;2022-08-21T02:54:03;95491.94;;;14.12;100.00
26978;BME280;56314;48.088;11.642;2022-08-21T02:56:29;95477.78;;;14.13;100.00
26978;BME280;56314;48.088;11.642;2022-08-21T02:58:54;95487.63;;;14.11;100.00
26978;BME280;56314;48.088;11.642;2022-08-21T03:01:20;95486.81;;;14.10;100.00
26978;BME280;56314;48.088;11.642;2022-08-21T03:03:47;95487.09;;;14.07;100.00
26978;BME280;56314;48.088;11.642;2022-08-21T03:06:16;95491.41;;;14.08;100.00
26978;BME280;56314;48.088;11.642;2022-08-21T03:08:42;95490.56;;;14.08;100.00
26978;BME280;56314;48.088;11.642;2022-08-21T03:11:10;95495.16;;;14.06;100.00
26978;BME280;56314;48.088;11.642;2022-08-21T03:13:36;95491.94;;;14.02;100.00
26978;BME280;56314;48.088;11.642;2022-08-21T03:16:02;95492.34;;;13.97;100.00
26978;BME280;56314;48.088;11.642;2022-08-21T03:18:27;95496.66;;;13.98;100.00
26978;BME280;56314;48.088;11.642;2022-08-21T03:20:53;95491.25;;;14.00;100.00
26978;BME280;56314;48.088;11.642;2022-08-21T03:23:18;95497.63;;;13.97;100.00
26978;BME280;56314;48.088;11.642;2022-08-21T03:25:45;95490.13;;;13.93;100.00
26978;BME280;56314;48.088;11.642;2022-08-21T03:28:13;95486.66;;;13.92;100.00
26978;BME280;56314;48.088;11.642;2022-08-21T03:30:43;95489.00;;;13.95;100.00
26978;BME280;56314;48.088;11.642;2022-08-21T03:33:09;95489.00;;;13.95;100.00
26978;BME280;56314;48.088;11.642;2022-08-21T03:35:35;95487.47;;;13.93;100.00
26978;BME280;56314;48.088;11.642;2022-08-21T03:38:00;95490.38;;;13.90;100.00
26978;BME280;56314;48.088;11.642;2022-08-21T03:40:26;95488.59;;;13.90;100.00
26978;BME280;56314;48.088;11.642;2022-08-21T03:42:51;95492.22;;;13.89;100.00
26978;BME280;56314;48.088;11.642;2022-08-21T03:45:18;95497.63;;;13.88;100.00
26978;BME280;56314;48.088;11.642;2022-08-21T03:47:56;95497.75;;;13.86;100.00
26978;BME280;56314;48.088;11.642;2022-08-21T03:50:24;95499.16;;;13.90;100.00
26978;BME280;56314;48.088;11.642;2022-08-21T03:52:50;95500.94;;;13.90;100.00
26978;BME280;56314;48.088;11.642;2022-08-21T03:55:15;95494.69;;;13.91;100.00
26978;BME280;56314;48.088;11.642;2022-08-21T03:57:41;95498.31;;;13.90;100.00
26978;BME280;56314;48.088;11.642;2022-08-21T04:00:07;95497.91;;;13.84;100.00
26978;BME280;56314;48.088;11.642;2022-08-21T04:02:35;95502.06;;;13.87;100.00
26978;BME280;56314;48.088;11.642;2022-08-21T04:05:01;95500.69;;;13.83;100.00
26978;BME280;56314;48.088;11.642;2022-08-21T04:07:26;95499.84;;;13.82;100.00
26978;BME280;56314;48.088;11.642;2022-08-21T04:09:51;95505.66;;;13.86;100.00
26978;BME280;56314;48.088;11.642;2022-08-21T04:12:17;95507.91;;;13.81;100.00
26978;BME280;56314;48.088;11.642;2022-08-21T04:14:42;95509.69;;;13.80;100.00
26978;BME280;56314;48.088;11.642;2022-08-21T04:17:07;95505.25;;;13.81;100.00
26978;BME280;56314;48.088;11.642;2022-08-21T04:19:33;95506.09;;;13.81;100.00
26978;BME280;56314;48.088;11.642;2022-08-21T04:21:58;95514.44;;;13.87;100.00
26978;BME280;56314;48.088;11.642;2022-08-21T04:24:23;95511.25;;;13.83;100.00
26978;BME280;56314;48.088;11.642;2022-08-21T04:26:49;95514.00;;;13.81;100.00
26978;BME280;56314;48.088;11.642;2022-08-21T04:29:15;95520.81;;;13.84;100.00
26978;BME280;56314;48.088;11.642;2022-08-21T04:31:40;95523.75;;;13.91;100.00
26978;BME280;56314;48.088;11.642;2022-08-21T04:34:05;95527.63;;;13.87;100.00
26978;BME280;56314;48.088;11.642;2022-08-21T04:36:32;95524.44;;;13.83;100.00
26978;BME280;56314;48.088;11.642;2022-08-21T04:38:58;95528.47;;;13.87;100.00
26978;BME280;56314;48.088;11.642;2022-08-21T04:41:24;95531.94;;;13.88;100.00
26978;BME280;56314;48.088;11.642;2022-08-21T04:43:49;95530.28;;;13.87;100.00
26978;BME280;56314;48.088;11.642;2022-08-21T04:46:15;95536.63;;;13.84;100.00
26978;BME280;56314;48.088;11.642;2022-08-21T04:48:40;95537.63;;;13.83;100.00
26978;BME280;56314;48.088;11.642;2022-08-21T04:51:13;95534.16;;;13.82;100.00
26978;BME280;56314;48.088;11.642;2022-08-21T04:53:46;95541.53;;;13.89;100.00
26978;BME280;56314;48.088;11.642;2022-08-21T04:56:28;95532.78;;;13.88;100.00
26978;BME280;56314;48.088;11.642;2022-08-21T04:58:58;95540.97;;;13.95;100.00
26978;BME280;56314;48.088;11.642;2022-08-21T05:01:27;95537.94;;;13.99;100.00
26978;BME280;56314;48.088;11.642;2022-08-21T05:03:56;95536.69;;;14.04;100.00
26978;BME280;56314;48.088;11.642;2022-08-21T05:06:23;95539.06;;;14.07;100.00
26978;BME280;56314;48.088;11.642;2022-08-21T05:08:50;95534.47;;;14.09;100.00
26978;BME280;56314;48.088;11.642;2022-08-21T05:11:18;95526.97;;;14.14;100.00
26978;BME280;56314;48.088;11.642;2022-08-21T05:13:43;95530.06;;;14.19;100.00
26978;BME280;56314;48.088;11.642;2022-08-21T05:16:09;95526.31;;;14.22;100.00
26978;BME280;56314;48.088;11.642;2022-08-21T05:18:34;95531.56;;;14.31;100.00
26978;BME280;56314;48.088;11.642;2022-08-21T05:21:00;95531.84;;;14.38;100.00
26978;BME280;56314;48.088;11.642;2022-08-21T05:23:25;95539.09;;;14.46;100.00
26978;BME280;56314;48.088;11.642;2022-08-21T05:25:52;95532.56;;;14.50;100.00
26978;BME280;56314;48.088;11.642;2022-08-21T05:28:17;95530.75;;;14.60;100.00
26978;BME280;56314;48.088;11.642;2022-08-21T05:30:43;95535.22;;;14.70;100.00
26978;BME280;56314;48.088;11.642;2022-08-21T05:33:08;95543.16;;;14.80;100.00
26978;BME280;56314;48.088;11.642;2022-08-21T05:35:35;95539.66;;;14.89;100.00
26978;BME280;56314;48.088;11.642;2022-08-21T05:38:01;95544.94;;;14.99;100.00
26978;BME280;56314;48.088;11.642;2022-08-21T05:40:27;95543.78;;;15.11;100.00
26978;BME280;56314;48.088;11.642;2022-08-21T05:42:53;95545.72;;;15.19;100.00
26978;BME280;56314;48.088;11.642;2022-08-21T05:45:19;95555.72;;;15.25;100.00
26978;BME280;56314;48.088;11.642;2022-08-21T05:47:44;95549.72;;;15.23;100.00
26978;BME280;56314;48.088;11.642;2022-08-21T05:50:10;95548.47;;;15.27;100.00
26978;BME280;56314;48.088;11.642;2022-08-21T05:52:35;95555.94;;;15.42;100.00
26978;BME280;56314;48.088;11.642;2022-08-21T05:55:01;95552.28;;;15.52;100.00
26978;BME280;56314;48.088;11.642;2022-08-21T05:57:26;95552.75;;;15.76;100.00
26978;BME280;56314;48.088;11.642;2022-08-21T05:59:52;95552.88;;;16.30;100.00
26978;BME280;56314;48.088;11.642;2022-08-21T06:02:19;95547.41;;;16.68;100.00
26978;BME280;56314;48.088;11.642;2022-08-21T06:04:45;95537.44;;;16.98;98.22
26978;BME280;56314;48.088;11.642;2022-08-21T06:07:10;95544.56;;;17.23;95.46
26978;BME280;56314;48.088;11.642;2022-08-21T06:09:36;95547.69;;;17.45;93.73
26978;BME280;56314;48.088;11.642;2022-08-21T06:12:11;95540.72;;;17.52;92.54
26978;BME280;56314;48.088;11.642;2022-08-21T06:14:38;95541.50;;;17.71;90.93
26978;BME280;56314;48.088;11.642;2022-08-21T06:17:06;95538.56;;;17.91;89.95
26978;BME280;56314;48.088;11.642;2022-08-21T06:19:33;95538.81;;;17.97;91.15
26978;BME280;56314;48.088;11.642;2022-08-21T06:21:59;95540.16;;;18.02;90.64
26978;BME280;56314;48.088;11.642;2022-08-21T06:24:24;95538.50;;;18.09;90.65
26978;BME280;56314;48.088;11.642;2022-08-21T06:26:50;95545.38;;;18.28;88.99
26978;BME280;56314;48.088;11.642;2022-08-21T06:29:15;95535.59;;;18.45;88.18
26978;BME280;56314;48.088;11.642;2022-08-21T06:31:42;95547.25;;;18.69;86.00
26978;BME280;56314;48.088;11.642;2022-08-21T06:34:08;95536.81;;;19.00;83.32
26978;BME280;56314;48.088;11.642;2022-08-21T06:36:34;95540.44;;;19.24;82.79
26978;BME280;56314;48.088;11.642;2022-08-21T06:38:59;95534.41;;;19.47;82.36
26978;BME280;56314;48.088;11.642;2022-08-21T06:41:25;95539.94;;;20.25;78.10
26978;BME280;56314;48.088;11.642;2022-08-21T06:43:51;95533.31;;;20.75;73.63
26978;BME280;56314;48.088;11.642;2022-08-21T06:46:16;95536.09;;;21.35;72.54
26978;BME280;56314;48.088;11.642;2022-08-21T06:48:42;95526.34;;;22.03;70.37
26978;BME280;56314;48.088;11.642;2022-08-21T06:51:07;95526.53;;;22.38;65.60
26978;BME280;56314;48.088;11.642;2022-08-21T06:53:33;95523.44;;;22.71;64.89
26978;BME280;56314;48.088;11.642;2022-08-21T06:55:58;95523.88;;;23.25;62.95
26978;BME280;56314;48.088;11.642;2022-08-21T06:58:24;95522.03;;;23.54;62.40
26978;BME280;56314;48.088;11.642;2022-08-21T07:00:50;95515.69;;;23.96;60.25
26978;BME280;56314;48.088;11.642;2022-08-21T07:03:25;95519.78;;;24.48;59.99
26978;BME280;56314;48.088;11.642;2022-08-21T07:05:51;95516.88;;;24.42;58.40
26978;BME280;56314;48.088;11.642;2022-08-21T07:08:17;95511.66;;;24.21;58.31
26978;BME280;56314;48.088;11.642;2022-08-21T07:10:43;95517.56;;;24.03;59.56
26978;BME280;56314;48.088;11.642;2022-08-21T07:13:09;95515.22;;;23.86;59.98
26978;BME280;56314;48.088;11.642;2022-08-21T07:15:34;95509.28;;;23.56;59.28
26978;BME280;56314;48.088;11.642;2022-08-21T07:18:00;95510.69;;;23.51;58.12
26978;BME280;56314;48.088;11.642;2022-08-21T07:20:29;95510.38;;;23.40;60.12
26978;BME280;56314;48.088;11.642;2022-08-21T07:22:57;95510.81;;;23.36;59.50
26978;BME280;56314;48.088;11.642;2022-08-21T07:25:23;95510.81;;;23.36;61.70
26978;BME280;56314;48.088;11.642;2022-08-21T07:27:49;95505.78;;;23.27;60.42
26978;BME280;56314;48.088;11.642;2022-08-21T07:30:14;95504.72;;;23.56;60.24
26978;BME280;56314;48.088;11.642;2022-08-21T07:32:40;95511.34;;;23.60;58.80
26978;BME280;56314;48.088;11.642;2022-08-21T07:35:05;95509.25;;;23.91;58.79
26978;BME280;56314;48.088;11.642;2022-08-21T07:37:31;95506.81;;;23.96;56.35
26978;BME280;56314;48.088;11.642;2022-08-21T07:39:56;95505.59;;;23.98;56.82
26978;BME280;56314;48.088;11.642;2022-08-21T07:42:21;95511.63;;;23.72;54.54
26978;BME280;56314;48.088;11.642;2022-08-21T07:44:47;95507.53;;;23.76;56.40
26978;BME280;56314;48.088;11.642;2022-08-21T07:47:12;95507.78;;;23.95;57.03
26978;BME280;56314;48.088;11.642;2022-08-21T07:49:37;95503.63;;;23.86;57.92
26978;BME280;56314;48.088;11.642;2022-08-21T07:52:03;95510.28;;;23.90;56.76
26978;BME280;56314;48.088;11.642;2022-08-21T07:54:28;95503.66;;;23.92;56.04
26978;BME280;56314;48.088;11.642;2022-08-21T07:56:54;95498.94;;;23.94;57.30
26978;BME280;56314;48.088;11.642;2022-08-21T07:59:19;95507.09;;;23.73;58.93
26978;BME280;56314;48.088;11.642;2022-08-21T08:01:45;95497.75;;;23.62;58.13
26978;BME280;56314;48.088;11.642;2022-08-21T08:04:10;95496.84;;;23.48;56.56
26978;BME280;56314;48.088;11.642;2022-08-21T08:06:35;95500.59;;;23.54;57.19
26978;BME280;56314;48.088;11.642;2022-08-21T08:09:01;95499.78;;;23.60;58.23
26978;BME280;56314;48.088;11.642;2022-08-21T08:11:29;95497.34;;;23.65;57.20
26978;BME280;56314;48.088;11.642;2022-08-21T08:13:54;95495.66;;;23.57;56.26
26978;BME280;56314;48.088;11.642;2022-08-21T08:16:22;95492.84;;;23.72;56.29
26978;BME280;56314;48.088;11.642;2022-08-21T08:18:47;95493.31;;;23.82;57.32
26978;BME280;56314;48.088;11.642;2022-08-21T08:21:15;95496.50;;;24.00;54.26
26978;BME280;56314;48.088;11.642;2022-08-21T08:23:40;95492.84;;;24.14;55.07
26978;BME280;56314;48.088;11.642;2022-08-21T08:26:06;95487.75;;;24.33;55.21
26978;BME280;56314;48.088;11.642;2022-08-21T08:28:32;95485.31;;;24.58;55.76
26978;BME280;56314;48.088;11.642;2022-08-21T08:30:59;95479.19;;;24.78;51.94
26978;BME280;56314;48.088;11.642;2022-08-21T08:33:25;95481.66;;;25.19;51.35
26978;BME280;56314;48.088;11.642;2022-08-21T08:35:51;95481.00;;;25.51;51.75
26978;BME280;56314;48.088;11.642;2022-08-21T08:38:18;95473.44;;;25.93;49.24
26978;BME280;56314;48.088;11.642;2022-08-21T08:43:20;95477.22;;;26.24;49.33
26978;BME280;56314;48.088;11.642;2022-08-21T08:45:48;95474.75;;;26.62;47.34
26978;BME280;56314;48.088;11.642;2022-08-21T08:48:30;95469.28;;;27.00;45.00
26978;BME280;56314;48.088;11.642;2022-08-21T08:50:57;95470.22;;;27.38;46.81
26978;BME280;56314;48.088;11.642;2022-08-21T08:53:31;95478.69;;;27.98;43.70
26978;BME280;56314;48.088;11.642;2022-08-21T08:55:57;95470.84;;;28.15;42.22
26978;BME280;56314;48.088;11.642;2022-08-21T08:58:29;95474.38;;;28.76;41.23
26978;BME280;56314;48.088;11.642;2022-08-21T09:00:58;95464.69;;;29.23;40.56
26978;BME280;56314;48.088;11.642;2022-08-21T09:03:24;95475.84;;;29.86;38.84
26978;BME280;56314;48.088;11.642;2022-08-21T09:11:28;95460.19;;;31.21;36.24
26978;BME280;56314;48.088;11.642;2022-08-21T09:19:39;95469.00;;;30.65;35.77
26978;BME280;56314;48.088;11.642;2022-08-21T09:22:30;95469.03;;;30.82;37.04
26978;BME280;56314;48.088;11.642;2022-08-21T09:25:08;95459.97;;;31.44;36.87
26978;BME280;56314;48.088;11.642;2022-08-21T09:27:36;95465.19;;;31.68;35.73
26978;BME280;56314;48.088;11.642;2022-08-21T09:30:05;95461.88;;;31.83;36.25
26978;BME280;56314;48.088;11.642;2022-08-21T09:32:32;95451.06;;;32.28;35.34
26978;BME280;56314;48.088;11.642;2022-08-21T09:37:30;95462.81;;;31.72;34.53
26978;BME280;56314;48.088;11.642;2022-08-21T09:39:57;95469.75;;;30.60;36.41
26978;BME280;56314;48.088;11.642;2022-08-21T09:42:29;95459.28;;;30.23;36.86
26978;BME280;56314;48.088;11.642;2022-08-21T09:45:13;95460.19;;;30.58;38.05
26978;BME280;56314;48.088;11.642;2022-08-21T09:47:40;95456.44;;;31.10;35.66
26978;BME280;56314;48.088;11.642;2022-08-21T09:50:15;95458.78;;;31.97;35.19
26978;BME280;56314;48.088;11.642;2022-08-21T09:52:51;95460.31;;;31.87;35.26
26978;BME280;56314;48.088;11.642;2022-08-21T09:55:51;95447.50;;;32.54;33.94
26978;BME280;56314;48.088;11.642;2022-08-21T09:58:37;95453.81;;;32.88;34.14
26978;BME280;56314;48.088;11.642;2022-08-21T10:01:05;95451.69;;;33.27;32.24
26978;BME280;56314;48.088;11.642;2022-08-21T10:03:31;95446.16;;;33.50;30.48
26978;BME280;56314;48.088;11.642;2022-08-21T10:05:59;95448.22;;;33.85;29.85
26978;BME280;56314;48.088;11.642;2022-08-21T10:08:27;95447.47;;;33.95;30.72
26978;BME280;56314;48.088;11.642;2022-08-21T10:11:15;95447.47;;;33.95;30.69
26978;BME280;56314;48.088;11.642;2022-08-21T10:13:55;95434.19;;;34.14;30.32
26978;BME280;56314;48.088;11.642;2022-08-21T10:25:49;95457.19;;;29.48;37.71
26978;BME280;56314;48.088;11.642;2022-08-21T10:28:07;95452.53;;;28.47;40.10
26978;BME280;56314;48.088;11.642;2022-08-21T10:35:41;95450.38;;;27.88;42.98
26978;BME280;56314;48.088;11.642;2022-08-21T10:44:04;95445.28;;;28.48;42.20
26978;BME280;56314;48.088;11.642;2022-08-21T10:51:39;95438.13;;;28.65;42.14
26978;BME280;56314;48.088;11.642;2022-08-21T10:56:36;95438.31;;;28.40;41.34
26978;BME280;56314;48.088;11.642;2022-08-21T10:59:26;95435.09;;;27.63;44.06
26978;BME280;56314;48.088;11.642;2022-08-21T11:02:12;95435.91;;;27.27;43.86
26978;BME280;56314;48.088;11.642;2022-08-21T11:05:01;95437.44;;;26.33;48.83
26978;BME280;56314;48.088;11.642;2022-08-21T11:07:35;95442.78;;;26.01;48.81
26978;BME280;56314;48.088;11.642;2022-08-21T11:10:10;95448.53;;;25.59;50.37
26978;BME280;56314;48.088;11.642;2022-08-21T11:12:44;95440.72;;;25.31;51.57
26978;BME280;56314;48.088;11.642;2022-08-21T11:17:54;95430.06;;;25.76;52.13
26978;BME280;56314;48.088;11.642;2022-08-21T11:20:34;95433.41;;;26.81;48.22
26978;BME280;56314;48.088;11.642;2022-08-21T11:23:08;95422.16;;;27.72;46.60
26978;BME280;56314;48.088;11.642;2022-08-21T11:25:42;95424.72;;;28.47;43.77
26978;BME280;56314;48.088;11.642;2022-08-21T11:28:15;95419.53;;;28.87;39.86
26978;BME280;56314;48.088;11.642;2022-08-21T11:36:59;95394.31;;;29.70;36.89
26978;BME280;56314;48.088;11.642;2022-08-21T11:39:44;95387.34;;;29.98;36.06
26978;BME280;56314;48.088;11.642;2022-08-21T11:42:30;95387.31;;;30.27;35.46
26978;BME280;56314;48.088;11.642;2022-08-21T11:50:21;95402.25;;;29.60;38.83
26978;BME280;56314;48.088;11.642;2022-08-21T11:53:13;95405.78;;;29.01;40.62
26978;BME280;56314;48.088;11.642;2022-08-21T11:55:48;95405.19;;;28.02;42.09
26978;BME280;56314;48.088;11.642;2022-08-21T11:58:21;95406.19;;;27.33;42.22
26978;BME280;56314;48.088;11.642;2022-08-21T12:00:56;95413.56;;;26.43;44.47
26978;BME280;56314;48.088;11.642;2022-08-21T12:06:00;95407.69;;;25.76;46.58
26978;BME280;56314;48.088;11.642;2022-08-21T12:09:03;95401.03;;;25.92;47.83
26978;BME280;56314;48.088;11.642;2022-08-21T12:11:29;95400.06;;;26.50;45.49
26978;BME280;56314;48.088;11.642;2022-08-21T12:16:34;95392.38;;;27.04;40.96
26978;BME280;56314;48.088;11.642;2022-08-21T12:19:13;95388.63;;;26.55;41.52
26978;BME280;56314;48.088;11.642;2022-08-21T12:22:14;95388.28;;;26.19;46.47
26978;BME280;56314;48.088;11.642;2022-08-21T12:24:41;95388.88;;;26.72;47.53
26978;BME280;56314;48.088;11.642;2022-08-21T12:30:06;95385.78;;;27.75;38.07
26978;BME280;56314;48.088;11.642;2022-08-21T12:32:58;95379.00;;;27.72;38.54
26978;BME280;56314;48.088;11.642;2022-08-21T12:35:40;95374.28;;;27.68;41.06
26978;BME280;56314;48.088;11.642;2022-08-21T12:38:28;95375.13;;;27.49;41.16
26978;BME280;56314;48.088;11.642;2022-08-21T12:41:06;95370.13;;;27.09;41.82
26978;BME280;56314;48.088;11.642;2022-08-21T12:43:37;95381.84;;;26.71;43.23
26978;BME280;56314;48.088;11.642;2022-08-21T12:46:04;95373.31;;;26.55;43.20
26978;BME280;56314;48.088;11.642;2022-08-21T12:48:39;95365.03;;;26.25;42.12
26978;BME280;56314;48.088;11.642;2022-08-21T12:51:48;95365.88;;;25.87;40.52
26978;BME280;56314;48.088;11.642;2022-08-21T12:54:27;95366.34;;;25.70;42.71
26978;BME280;56314;48.088;11.642;2022-08-21T12:57:04;95377.81;;;25.52;42.23
26978;BME280;56314;48.088;11.642;2022-08-21T12:59:30;95360.69;;;25.33;45.66
26978;BME280;56314;48.088;11.642;2022-08-21T13:01:59;95365.66;;;25.29;45.74
26978;BME280;56314;48.088;11.642;2022-08-21T13:04:37;95359.22;;;25.37;44.38
26978;BME280;56314;48.088;11.642;2022-08-21T13:07:09;95354.78;;;25.70;43.71
26978;BME280;56314;48.088;11.642;2022-08-21T13:09:44;95353.28;;;26.19;42.34
26978;BME280;56314;48.088;11.642;2022-08-21T13:12:13;95346.91;;;26.07;42.55
26978;BME280;56314;48.088;11.642;2022-08-21T13:14:42;95344.41;;;25.73;43.94
26978;BME280;56314;48.088;11.642;2022-08-21T13:17:10;95346.63;;;25.38;44.31
26978;BME280;56314;48.088;11.642;2022-08-21T13:19:36;95351.81;;;25.32;45.38
26978;BME280;56314;48.088;11.642;2022-08-21T13:22:02;95357.50;;;24.97;45.37
26978;BME280;56314;48.088;11.642;2022-08-21T13:24:32;95354.00;;;24.83;49.19
26978;BME280;56314;48.088;11.642;2022-08-21T13:26:58;95359.41;;;24.77;49.91
26978;BME280;56314;48.088;11.642;2022-08-21T13:29:30;95349.03;;;25.00;48.36
26978;BME280;56314;48.088;11.642;2022-08-21T13:32:00;95339.81;;;25.42;44.92
26978;BME280;56314;48.088;11.642;2022-08-21T13:34:30;95336.56;;;25.72;44.56
26978;BME280;56314;48.088;11.642;2022-08-21T13:37:04;95339.88;;;25.74;42.00
26978;BME280;56314;48.088;11.642;2022-08-21T13:39:31;95335.78;;;25.64;44.35
26978;BME280;56314;48.088;11.642;2022-08-21T13:41:59;95328.94;;;25.69;43.91
26978;BME280;56314;48.088;11.642;2022-08-21T13:44:40;95336.03;;;25.56;43.03
26978;BME280;56314;48.088;11.642;2022-08-21T13:47:07;95331.72;;;25.48;44.33
26978;BME280;56314;48.088;11.642;2022-08-21T13:49:39;95330.72;;;25.36;45.31
26978;BME280;56314;48.088;11.642;2022-08-21T13:52:14;95326.84;;;25.25;46.25
26978;BME280;56314;48.088;11.642;2022-08-21T13:54:41;95327.31;;;24.95;45.99
26978;BME280;56314;48.088;11.642;2022-08-21T13:57:26;95334.19;;;24.78;47.71
26978;BME280;56314;48.088;11.642;2022-08-21T13:59:52;95330.91;;;24.69;49.28
26978;BME280;56314;48.088;11.642;2022-08-21T14:02:23;95329.66;;;24.71;50.04